Accedi per prenotare

Situazione Metar e Taf aeroporto Pisa - Effemeridi Aeroporto Lucca

[Source: ADDS]
METAR
LIRP 222115Z 12004KT 9999 SCT020 SCT030 08/05 Q1014 NOSIG =
TAF
LIRP 221700Z 2218/2318 12005KT 9999 SCT020 BKN040 PROB30 TEMPO 2300/2306 4000 BR =
SR / SS: 06:43 / 16:19 UTC (Effemeridi LIQL 2018-01-22)